createdAt,value
2018-02-25T00:00:25.370Z,2.36
2018-02-25T00:02:54.629Z,2.33
2018-02-25T00:05:23.870Z,1.77
2018-02-25T00:07:52.999Z,1.88
2018-02-25T00:10:23.054Z,1.88
2018-02-25T00:12:52.182Z,2.09
2018-02-25T00:15:21.583Z,1.47
2018-02-25T00:17:50.846Z,1.66
2018-02-25T00:20:20.353Z,1.69
2018-02-25T00:22:49.635Z,1.44
2018-02-25T00:25:18.842Z,1.70
2018-02-25T00:27:48.080Z,1.51
2018-02-25T00:30:17.492Z,1.41
2018-02-25T00:32:46.424Z,1.33
2018-02-25T00:35:15.776Z,1.43
2018-02-25T00:37:45.016Z,1.56
2018-02-25T00:40:14.214Z,1.88
2018-02-25T00:42:44.455Z,1.54
2018-02-25T00:45:13.575Z,1.29
2018-02-25T00:47:42.892Z,1.40
2018-02-25T00:50:12.397Z,1.29
2018-02-25T00:52:41.533Z,1.10
2018-02-25T00:55:11.203Z,1.32
2018-02-25T00:57:40.664Z,1.42
2018-02-25T01:00:10.114Z,1.22
2018-02-25T01:02:39.134Z,1.12
2018-02-25T01:05:08.610Z,1.14
2018-02-25T01:07:37.914Z,1.04
2018-02-25T01:10:07.419Z,0.37
2018-02-25T01:12:36.718Z,0.72
2018-02-25T01:15:06.324Z,0.83
2018-02-25T01:17:35.385Z,0.47
2018-02-25T01:20:04.594Z,0.33
2018-02-25T01:22:33.761Z,0.17
2018-02-25T01:25:02.880Z,0.53
2018-02-25T01:27:32.000Z,0.34
2018-02-25T01:30:01.316Z,0.47
2018-02-25T01:32:30.538Z,0.06
2018-02-25T01:34:59.995Z,-0.02
2018-02-25T01:37:29.582Z,0.30
2018-02-25T01:39:58.962Z,0.03
2018-02-25T01:42:28.149Z,0.12
2018-02-25T01:44:57.174Z,0.41
2018-02-25T01:47:26.305Z,0.21
2018-02-25T01:49:55.737Z,-0.07
2018-02-25T01:52:25.010Z,0.28
2018-02-25T01:54:54.215Z,0.40
2018-02-25T01:57:23.297Z,0.38
2018-02-25T01:59:52.516Z,-0.19
2018-02-25T02:02:21.670Z,-0.09
2018-02-25T02:04:50.888Z,-0.05
2018-02-25T02:07:20.229Z,0.17
2018-02-25T02:09:49.462Z,-0.02
2018-02-25T02:12:18.910Z,-0.13
2018-02-25T02:14:48.107Z,-0.12
2018-02-25T02:17:17.119Z,-0.01
2018-02-25T02:19:46.421Z,0.12
2018-02-25T02:22:15.585Z,0.05
2018-02-25T02:24:44.517Z,0.00
2018-02-25T02:27:13.867Z,0.34
2018-02-25T02:29:43.192Z,0.16
2018-02-25T02:32:12.592Z,0.04
2018-02-25T02:34:41.752Z,-0.11
2018-02-25T02:37:11.404Z,0.85
2018-02-25T02:39:40.777Z,0.17
2018-02-25T02:42:10.590Z,0.15
2018-02-25T02:44:39.916Z,0.06
2018-02-25T02:47:09.419Z,0.05
2018-02-25T02:49:38.638Z,0.02
2018-02-25T02:52:08.044Z,0.01
2018-02-25T02:54:37.466Z,-0.06
2018-02-25T02:57:06.677Z,-0.08
2018-02-25T02:59:35.849Z,-0.05
2018-02-25T03:02:05.417Z,-0.13
2018-02-25T03:04:34.627Z,-0.14
2018-02-25T03:07:04.124Z,0.11
2018-02-25T03:09:33.276Z,0.21
2018-02-25T03:12:02.828Z,0.31
2018-02-25T03:14:32.262Z,0.11
2018-02-25T03:17:01.426Z,0.31
2018-02-25T03:19:30.610Z,-0.09
2018-02-25T03:22:00.024Z,-0.19
2018-02-25T03:24:29.166Z,0.11
2018-02-25T03:26:58.654Z,0.19
2018-02-25T03:29:27.670Z,0.18
2018-02-25T03:31:57.434Z,-0.09
2018-02-25T03:34:26.708Z,-0.13
2018-02-25T03:36:55.917Z,-0.09
2018-02-25T03:39:25.331Z,-0.29
2018-02-25T03:41:54.848Z,-0.11
2018-02-25T03:44:24.440Z,-0.22
2018-02-25T03:46:53.810Z,-0.24
2018-02-25T03:49:23.218Z,-0.64
2018-02-25T03:51:52.541Z,-0.60
2018-02-25T03:54:21.785Z,-0.32
2018-02-25T03:56:51.081Z,-0.42
2018-02-25T03:59:20.423Z,-0.21
2018-02-25T04:01:49.810Z,-0.17
2018-02-25T04:04:18.937Z,-0.16
2018-02-25T04:06:48.083Z,-0.21
2018-02-25T04:09:17.304Z,-0.13
2018-02-25T04:11:46.254Z,-0.40
2018-02-25T04:14:15.675Z,-0.07
2018-02-25T04:16:45.131Z,-0.39
2018-02-25T04:19:14.885Z,-0.35
2018-02-25T04:21:43.947Z,-0.48
2018-02-25T04:24:13.260Z,-0.58
2018-02-25T04:26:42.655Z,-0.59
2018-02-25T04:29:11.716Z,-0.51
2018-02-25T04:31:40.908Z,-0.50
2018-02-25T04:34:10.455Z,-0.64
2018-02-25T04:36:39.374Z,-0.69
2018-02-25T04:39:08.766Z,-0.37
2018-02-25T04:41:37.928Z,-0.71
2018-02-25T04:44:07.240Z,-0.62
2018-02-25T04:46:36.462Z,-0.50
2018-02-25T04:49:05.736Z,-0.72
2018-02-25T04:51:35.272Z,-0.66
2018-02-25T04:54:04.776Z,-0.75
2018-02-25T04:56:34.122Z,-0.72
2018-02-25T04:59:03.468Z,-0.55
2018-02-25T05:01:32.881Z,-0.61
2018-02-25T05:04:02.064Z,-0.55
2018-02-25T05:06:31.317Z,-0.66
2018-02-25T05:09:00.766Z,-0.80
2018-02-25T05:11:29.754Z,-0.73
2018-02-25T05:13:58.799Z,-0.72
2018-02-25T05:16:28.384Z,-0.72
2018-02-25T05:18:57.334Z,-0.79
2018-02-25T05:21:26.626Z,-0.71
2018-02-25T05:23:55.794Z,-0.72
2018-02-25T05:26:24.838Z,-0.40
2018-02-25T05:28:54.337Z,-0.02
2018-02-25T05:31:23.638Z,-0.34
2018-02-25T05:33:52.845Z,-0.43
2018-02-25T05:36:22.130Z,-0.06
2018-02-25T05:38:51.590Z,-0.31
2018-02-25T05:41:20.946Z,-0.19
2018-02-25T05:43:50.116Z,-0.38
2018-02-25T05:46:19.527Z,-0.56
2018-02-25T05:48:48.726Z,-0.51
2018-02-25T05:51:18.040Z,-0.19
2018-02-25T05:53:47.000Z,-0.23
2018-02-25T05:56:16.864Z,-0.14
2018-02-25T05:58:45.946Z,-0.17
2018-02-25T06:01:14.973Z,0.10
2018-02-25T06:03:44.134Z,-0.02
2018-02-25T06:06:13.507Z,-0.24
2018-02-25T06:08:43.246Z,-0.31
2018-02-25T06:11:13.060Z,0.06
2018-02-25T06:13:42.296Z,-0.17
2018-02-25T06:16:11.562Z,-0.39
2018-02-25T06:18:40.716Z,-0.10
2018-02-25T06:21:10.127Z,-0.02
2018-02-25T06:23:39.181Z,0.04
2018-02-25T06:26:08.818Z,-0.34
2018-02-25T06:28:38.168Z,-0.42
2018-02-25T06:31:07.486Z,-0.22
2018-02-25T06:33:36.589Z,-0.14
2018-02-25T06:36:05.989Z,-0.22
2018-02-25T06:38:35.140Z,-0.10
2018-02-25T06:41:05.125Z,0.04
2018-02-25T06:43:34.571Z,0.36
2018-02-25T06:46:03.680Z,-0.33
2018-02-25T06:48:32.957Z,0.04
2018-02-25T06:51:02.355Z,-0.17
2018-02-25T06:53:31.904Z,0.18
2018-02-25T06:56:00.910Z,-0.35
2018-02-25T06:58:29.921Z,-0.31
2018-02-25T07:00:58.960Z,-0.24
2018-02-25T07:03:28.099Z,0.32
2018-02-25T07:05:57.332Z,0.12
2018-02-25T07:08:26.442Z,0.68
2018-02-25T07:10:55.893Z,0.20
2018-02-25T07:13:25.458Z,0.09
2018-02-25T07:15:55.500Z,0.09
2018-02-25T07:18:24.879Z,-0.05
2018-02-25T07:20:54.053Z,-0.22
2018-02-25T07:23:23.034Z,-0.31
2018-02-25T07:25:52.384Z,-0.17
2018-02-25T07:28:21.403Z,0.03
2018-02-25T07:30:50.766Z,0.13
2018-02-25T07:33:19.964Z,-0.08
2018-02-25T07:35:49.156Z,0.08
2018-02-25T07:38:18.794Z,0.06
2018-02-25T07:40:47.997Z,-0.15
2018-02-25T07:43:17.778Z,-0.25
2018-02-25T07:45:46.967Z,-0.22
2018-02-25T07:48:16.205Z,0.35
2018-02-25T07:50:45.586Z,0.15
2018-02-25T07:53:14.770Z,-0.10
2018-02-25T07:55:44.193Z,-0.52
2018-02-25T07:58:13.780Z,-0.13
2018-02-25T08:00:43.087Z,-0.06
2018-02-25T08:03:12.755Z,-0.07
2018-02-25T08:05:42.140Z,0.04
2018-02-25T08:08:11.408Z,0.07
2018-02-25T08:10:40.572Z,0.45
2018-02-25T08:13:09.695Z,0.29
2018-02-25T08:15:38.835Z,0.31
2018-02-25T08:18:07.802Z,-0.09
2018-02-25T08:20:37.284Z,-0.22
2018-02-25T08:23:06.429Z,-0.06
2018-02-25T08:25:35.560Z,0.05
2018-02-25T08:28:04.738Z,0.29
2018-02-25T08:30:34.312Z,-0.34
2018-02-25T08:33:03.685Z,0.02
2018-02-25T08:35:33.018Z,-0.14
2018-02-25T08:38:02.082Z,0.03
2018-02-25T08:40:31.222Z,0.22
2018-02-25T08:43:00.677Z,0.14
2018-02-25T08:45:29.595Z,0.28
2018-02-25T08:47:58.976Z,0.17
2018-02-25T08:50:28.251Z,0.23
2018-02-25T08:52:57.951Z,0.38
2018-02-25T08:55:27.146Z,0.13
2018-02-25T08:57:56.382Z,0.04
2018-02-25T09:00:25.602Z,-0.16
2018-02-25T09:02:54.581Z,0.08
2018-02-25T09:05:23.926Z,0.28
2018-02-25T09:07:52.829Z,0.65
2018-02-25T09:10:22.367Z,0.36
2018-02-25T09:12:51.433Z,0.13
2018-02-25T09:15:20.870Z,0.22
2018-02-25T09:17:49.955Z,0.25
2018-02-25T09:20:19.162Z,0.09
2018-02-25T09:22:47.993Z,0.24
2018-02-25T09:25:17.207Z,0.08
2018-02-25T09:27:46.681Z,0.29
2018-02-25T09:30:15.949Z,0.32
2018-02-25T09:32:45.033Z,0.13
2018-02-25T09:35:14.277Z,0.67
2018-02-25T09:37:43.749Z,0.89
2018-02-25T09:40:12.946Z,0.75
2018-02-25T09:42:42.247Z,0.82
2018-02-25T09:45:11.237Z,0.92
2018-02-25T09:47:40.552Z,0.61
2018-02-25T09:50:09.827Z,0.47
2018-02-25T09:52:39.408Z,0.77
2018-02-25T09:55:08.758Z,0.84
2018-02-25T09:57:38.066Z,1.37
2018-02-25T10:00:07.254Z,1.54
2018-02-25T10:02:36.400Z,1.21
2018-02-25T10:05:05.635Z,1.08
2018-02-25T10:07:34.834Z,0.46
2018-02-25T10:10:04.006Z,0.40
2018-02-25T10:12:33.296Z,1.06
2018-02-25T10:15:02.676Z,0.73
2018-02-25T10:17:32.059Z,0.83
2018-02-25T10:20:01.114Z,1.16
2018-02-25T10:22:30.241Z,1.05
2018-02-25T10:24:59.458Z,1.00
2018-02-25T10:27:28.869Z,0.67
2018-02-25T10:29:58.034Z,0.72
2018-02-25T10:32:26.934Z,1.10
2018-02-25T10:34:56.273Z,1.03
2018-02-25T10:37:25.141Z,1.26
2018-02-25T10:39:54.449Z,1.56
2018-02-25T10:42:24.226Z,1.11
2018-02-25T10:44:53.519Z,0.96
2018-02-25T10:47:22.661Z,0.54
2018-02-25T10:49:51.741Z,1.01
2018-02-25T10:52:21.124Z,1.26
2018-02-25T10:54:50.125Z,1.49
2018-02-25T10:57:19.114Z,0.80
2018-02-25T10:59:48.306Z,1.18
2018-02-25T11:02:17.816Z,1.46
2018-02-25T11:04:47.081Z,1.20
2018-02-25T11:07:16.306Z,1.08
2018-02-25T11:09:45.334Z,1.09
2018-02-25T11:12:14.397Z,0.63
2018-02-25T11:14:43.553Z,0.71
2018-02-25T11:17:12.620Z,1.00
2018-02-25T11:19:41.757Z,0.46
2018-02-25T11:22:11.269Z,0.66
2018-02-25T11:24:40.491Z,0.87
2018-02-25T11:27:09.754Z,0.63
2018-02-25T11:29:39.100Z,1.19
2018-02-25T11:32:08.601Z,0.95
2018-02-25T11:34:37.995Z,1.06
2018-02-25T11:37:07.148Z,1.24
2018-02-25T11:39:36.146Z,0.70
2018-02-25T11:42:05.205Z,0.94
2018-02-25T11:44:34.338Z,0.76
2018-02-25T11:47:03.562Z,1.25
2018-02-25T11:49:32.642Z,1.26
2018-02-25T11:52:02.069Z,1.17
2018-02-25T11:54:31.182Z,1.19
2018-02-25T11:57:00.387Z,1.27
2018-02-25T11:59:29.881Z,0.74
2018-02-25T12:01:59.283Z,0.52
2018-02-25T12:04:28.564Z,0.55
2018-02-25T12:06:57.789Z,0.50
2018-02-25T12:09:27.087Z,0.41
2018-02-25T12:11:56.223Z,0.34
2018-02-25T12:14:25.406Z,0.54
2018-02-25T12:16:54.310Z,0.26
2018-02-25T12:19:23.551Z,0.43
2018-02-25T12:21:52.575Z,0.30
2018-02-25T12:24:21.812Z,0.39
2018-02-25T12:26:51.100Z,0.25
2018-02-25T12:29:20.115Z,0.50
2018-02-25T12:31:49.855Z,0.21
2018-02-25T12:34:19.195Z,0.26
2018-02-25T12:36:48.456Z,0.27
2018-02-25T12:39:17.528Z,0.13
2018-02-25T12:41:46.389Z,-0.24
2018-02-25T12:44:15.452Z,0.11
2018-02-25T12:46:44.430Z,0.18
2018-02-25T12:49:13.421Z,0.18
2018-02-25T12:51:42.491Z,0.30
2018-02-25T12:54:12.053Z,0.27
2018-02-25T12:56:41.136Z,0.00
2018-02-25T12:59:10.423Z,-0.18
2018-02-25T13:01:39.551Z,-0.21
2018-02-25T13:04:08.701Z,-0.41
2018-02-25T13:06:38.319Z,-0.04
2018-02-25T13:09:07.592Z,0.12
2018-02-25T13:11:37.430Z,-0.30
2018-02-25T13:14:06.810Z,-0.15
2018-02-25T13:16:35.932Z,0.25
2018-02-25T13:19:05.373Z,0.08
2018-02-25T13:21:34.678Z,-0.29
2018-02-25T13:24:03.805Z,-0.08
2018-02-25T13:26:33.101Z,-0.56
2018-02-25T13:29:02.282Z,-0.62
2018-02-25T13:31:31.634Z,-0.45
2018-02-25T13:34:01.138Z,-0.33
2018-02-25T13:36:30.628Z,-0.35
2018-02-25T13:39:00.011Z,-0.32
2018-02-25T13:41:30.358Z,-0.64
2018-02-25T13:43:59.708Z,-0.34
2018-02-25T13:46:29.376Z,0.10
2018-02-25T13:48:58.776Z,0.15
2018-02-25T13:51:28.166Z,-0.20
2018-02-25T13:54:02.388Z,0.31
2018-02-25T13:56:32.206Z,0.33
2018-02-25T13:59:01.642Z,-0.26
2018-02-25T14:01:30.927Z,-0.23
2018-02-25T14:04:00.442Z,-0.79
2018-02-25T14:06:29.749Z,-0.21
2018-02-25T14:08:58.879Z,-0.30
2018-02-25T14:11:28.623Z,-0.25
2018-02-25T14:13:58.248Z,-0.56
2018-02-25T14:16:27.536Z,-0.28
2018-02-25T14:18:57.377Z,-0.42
2018-02-25T14:21:26.826Z,-0.77
2018-02-25T14:23:56.264Z,-0.82
2018-02-25T14:26:25.602Z,-0.49
2018-02-25T14:28:54.885Z,-0.83
2018-02-25T14:31:24.397Z,-0.33
2018-02-25T14:33:53.825Z,-0.75
2018-02-25T14:36:23.290Z,-0.71
2018-02-25T14:38:52.837Z,-0.56
2018-02-25T14:41:22.188Z,-0.87
2018-02-25T14:43:51.630Z,-0.55
2018-02-25T14:46:21.122Z,-0.73
2018-02-25T14:48:50.790Z,-0.68
2018-02-25T14:51:20.494Z,-0.52
2018-02-25T14:53:49.890Z,-1.15
2018-02-25T14:56:19.317Z,-0.86
2018-02-25T14:58:48.578Z,-0.78
2018-02-25T15:01:18.007Z,-1.08
2018-02-25T15:03:47.282Z,-1.18
2018-02-25T15:06:16.517Z,-0.84
2018-02-25T15:08:45.498Z,-0.93
2018-02-25T15:11:14.638Z,-1.12
2018-02-25T15:13:43.861Z,-1.36
2018-02-25T15:16:13.118Z,-1.19
2018-02-25T15:18:42.365Z,-1.58
2018-02-25T15:21:11.591Z,-1.20
2018-02-25T15:23:41.105Z,-1.10
2018-02-25T15:26:10.529Z,-1.45
2018-02-25T15:28:40.007Z,-1.43
2018-02-25T15:31:09.975Z,-1.58
2018-02-25T15:33:39.459Z,-1.46
2018-02-25T15:36:08.542Z,-1.43
2018-02-25T15:38:37.745Z,-1.30
2018-02-25T15:41:07.286Z,-1.48
2018-02-25T15:43:36.872Z,-1.58
2018-02-25T15:46:06.193Z,-1.71
2018-02-25T15:48:35.730Z,-1.26
2018-02-25T15:51:05.305Z,-1.45
2018-02-25T15:53:34.947Z,-1.21
2018-02-25T15:56:04.647Z,-1.11
2018-02-25T15:58:34.199Z,-1.35
2018-02-25T16:01:03.665Z,-1.49
2018-02-25T16:03:33.835Z,-1.45
2018-02-25T16:06:03.512Z,-1.54
2018-02-25T16:08:32.892Z,-1.38
2018-02-25T16:11:02.462Z,-0.94
2018-02-25T16:13:32.236Z,-1.50
2018-02-25T16:16:01.595Z,-1.55
2018-02-25T16:18:30.961Z,-1.32
2018-02-25T16:21:00.066Z,-1.70
2018-02-25T16:23:29.447Z,-1.53
2018-02-25T16:25:58.801Z,-1.53
2018-02-25T16:28:28.330Z,-1.55
2018-02-25T16:30:57.565Z,-1.49
2018-02-25T16:33:26.778Z,-1.25
2018-02-25T16:35:56.851Z,-1.40
2018-02-25T16:38:26.725Z,-1.58
2018-02-25T16:40:56.261Z,-1.54
2018-02-25T16:43:25.765Z,-1.20
2018-02-25T16:45:54.889Z,-1.16
2018-02-25T16:48:24.026Z,-1.55
2018-02-25T16:50:54.396Z,-1.49
2018-02-25T16:53:23.725Z,-1.59
2018-02-25T16:55:52.686Z,-1.51
2018-02-25T16:58:21.642Z,-1.55
2018-02-25T17:00:50.927Z,-1.59
2018-02-25T17:03:19.971Z,-1.53
2018-02-25T17:05:49.377Z,-1.54
2018-02-25T17:08:18.900Z,-1.48
2018-02-25T17:10:48.229Z,-1.13
2018-02-25T17:13:17.325Z,-1.30
2018-02-25T17:15:46.560Z,-1.11
2018-02-25T17:18:15.985Z,-0.94
2018-02-25T17:20:45.135Z,-0.81
2018-02-25T17:23:21.032Z,-0.80
2018-02-25T17:36:12.857Z,-0.75
2018-02-25T17:38:42.218Z,-0.86
2018-02-25T17:41:11.807Z,-0.84
2018-02-25T17:43:41.240Z,-0.64
2018-02-25T17:46:10.848Z,-0.89
2018-02-25T17:48:40.723Z,-0.82
2018-02-25T17:51:10.199Z,-1.00
2018-02-25T17:53:39.462Z,-0.65
2018-02-25T17:56:08.741Z,-0.68
2018-02-25T17:58:38.249Z,-0.30
2018-02-25T18:01:07.659Z,-0.83
2018-02-25T18:03:36.933Z,-0.99
2018-02-25T18:06:06.422Z,-0.44
2018-02-25T18:08:35.768Z,-0.76
2018-02-25T18:11:04.939Z,-0.25
2018-02-25T18:13:34.374Z,-0.61
2018-02-25T18:16:04.072Z,-0.63
2018-02-25T18:18:33.166Z,-0.67
2018-02-25T18:21:02.510Z,-0.72
2018-02-25T18:23:32.591Z,-0.59
2018-02-25T18:26:02.107Z,-0.58
2018-02-25T18:28:31.520Z,-0.07
2018-02-25T18:31:00.874Z,-0.50
2018-02-25T18:33:30.308Z,-0.72
2018-02-25T18:35:59.646Z,-0.23
2018-02-25T18:38:28.905Z,-0.56
2018-02-25T18:40:58.186Z,-0.55
2018-02-25T18:43:27.412Z,-0.47
2018-02-25T18:45:56.762Z,-0.59
2018-02-25T18:48:25.935Z,-0.32
2018-02-25T18:50:55.299Z,-0.66
2018-02-25T18:53:25.186Z,-0.24
2018-02-25T18:55:54.322Z,1.08
2018-02-25T18:58:23.390Z,0.18
2018-02-25T19:00:52.703Z,-0.24
2018-02-25T19:03:22.024Z,-0.39
2018-02-25T19:05:51.205Z,-0.21
2018-02-25T19:08:20.666Z,-0.14
2018-02-25T19:10:50.210Z,-0.37
2018-02-25T19:13:19.633Z,-0.37
2018-02-25T19:15:49.126Z,-0.52
2018-02-25T19:18:18.631Z,-0.42
2018-02-25T19:20:47.944Z,-0.54
2018-02-25T19:23:17.014Z,-0.51
2018-02-25T19:25:46.231Z,-0.06
2018-02-25T19:28:15.235Z,-0.46
2018-02-25T19:30:44.570Z,-0.66
2018-02-25T19:33:13.720Z,-0.51
2018-02-25T19:35:48.957Z,-0.50
2018-02-25T19:38:23.870Z,-0.22
2018-02-25T19:40:59.024Z,-0.28
2018-02-25T19:43:28.436Z,-0.40
2018-02-25T19:45:57.840Z,-0.47
2018-02-25T19:48:27.123Z,-0.25
2018-02-25T19:50:56.372Z,-0.33
2018-02-25T19:53:25.539Z,-0.40
2018-02-25T19:55:54.877Z,-0.15
2018-02-25T19:58:24.228Z,-0.05
2018-02-25T20:00:53.576Z,-0.03
2018-02-25T20:03:23.133Z,-0.03
2018-02-25T20:05:52.538Z,-0.13
2018-02-25T20:08:21.751Z,-0.14
2018-02-25T20:10:50.965Z,0.03
2018-02-25T20:13:20.339Z,0.19
2018-02-25T20:15:49.542Z,-0.06
2018-02-25T20:18:18.822Z,0.27
2018-02-25T20:20:47.996Z,0.07
2018-02-25T20:23:17.061Z,0.00
2018-02-25T20:25:46.425Z,0.13
2018-02-25T20:28:15.844Z,0.10
2018-02-25T20:30:44.918Z,-0.01
2018-02-25T20:33:14.439Z,0.06
2018-02-25T20:35:43.497Z,0.21
2018-02-25T20:38:12.824Z,-0.09
2018-02-25T20:40:42.094Z,0.06
2018-02-25T20:43:11.236Z,-0.23
2018-02-25T20:45:40.483Z,-0.15
2018-02-25T20:48:10.036Z,-0.20
2018-02-25T20:50:39.061Z,-0.19
2018-02-25T20:53:08.148Z,-0.24
2018-02-25T20:55:37.282Z,-0.26
2018-02-25T20:58:06.893Z,-0.28
2018-02-25T21:00:36.940Z,-0.35
2018-02-25T21:03:06.352Z,-0.24
2018-02-25T21:05:35.668Z,-0.38
2018-02-25T21:08:04.899Z,-0.43
2018-02-25T21:10:34.277Z,-0.49
2018-02-25T21:13:03.239Z,-0.65
2018-02-25T21:15:32.167Z,-0.64
2018-02-25T21:18:01.254Z,-0.59
2018-02-25T21:20:30.494Z,-0.70
2018-02-25T21:22:59.924Z,-0.52
2018-02-25T21:25:29.226Z,-0.62
2018-02-25T21:27:58.424Z,-0.62
2018-02-25T21:30:27.556Z,-0.61
2018-02-25T21:32:57.088Z,-0.83
2018-02-25T21:35:26.401Z,-0.88
2018-02-25T21:37:56.028Z,-0.84
2018-02-25T21:40:25.611Z,-0.90
2018-02-25T21:42:54.739Z,-0.93
2018-02-25T21:45:23.900Z,-0.81
2018-02-25T21:47:52.885Z,-0.89
2018-02-25T21:50:22.070Z,-0.96
2018-02-25T21:52:51.155Z,-0.87
2018-02-25T21:55:20.075Z,-0.90
2018-02-25T21:57:54.758Z,-0.93
2018-02-25T22:00:29.452Z,-0.74
2018-02-25T22:03:04.071Z,-0.98
2018-02-25T22:05:33.377Z,-0.76
2018-02-25T22:08:02.478Z,-1.04
2018-02-25T22:10:31.542Z,-0.93
2018-02-25T22:13:00.809Z,-0.87
2018-02-25T22:15:30.116Z,-0.87
2018-02-25T22:17:59.150Z,-0.91
2018-02-25T22:20:28.407Z,-1.07
2018-02-25T22:22:57.404Z,-1.09
2018-02-25T22:25:26.426Z,-1.14
2018-02-25T22:27:55.474Z,-1.30
2018-02-25T22:30:24.584Z,-1.10
2018-02-25T22:32:53.667Z,-1.15
2018-02-25T22:35:23.254Z,-1.16
2018-02-25T22:37:52.494Z,-1.25
2018-02-25T22:40:22.269Z,-1.34
2018-02-25T22:42:51.572Z,-1.38
2018-02-25T22:45:21.168Z,-1.30
2018-02-25T22:47:50.182Z,-1.24
2018-02-25T22:50:19.676Z,-1.39
2018-02-25T22:52:49.273Z,-1.42
2018-02-25T22:55:18.444Z,-1.52
2018-02-25T22:57:47.873Z,-1.61
2018-02-25T23:00:23.172Z,-1.51
2018-02-25T23:02:52.540Z,-1.59
2018-02-25T23:05:21.710Z,-1.42
2018-02-25T23:07:51.114Z,-1.60
2018-02-25T23:10:20.071Z,-1.57
2018-02-25T23:12:49.643Z,-1.69
2018-02-25T23:15:19.086Z,-1.69
2018-02-25T23:17:48.528Z,-1.67
2018-02-25T23:20:17.897Z,-1.44
2018-02-25T23:22:47.320Z,-1.49
2018-02-25T23:25:16.844Z,-1.59
2018-02-25T23:27:46.462Z,-1.71
2018-02-25T23:30:15.842Z,-1.65
2018-02-25T23:32:45.009Z,-1.69
2018-02-25T23:35:14.851Z,-1.74
2018-02-25T23:37:43.802Z,-1.68
2018-02-25T23:40:13.091Z,-1.61
2018-02-25T23:42:42.166Z,-1.57
2018-02-25T23:45:11.394Z,-1.52
2018-02-25T23:47:40.769Z,-1.77
2018-02-25T23:50:09.969Z,-1.90
2018-02-25T23:52:39.571Z,-1.69
2018-02-25T23:55:08.623Z,-1.68
2018-02-25T23:57:37.793Z,-1.62
